sensor_id;sensor_type;location;lat;lon;timestamp;temperature;humidity
16032;DHT22;8120;48.308;8.914;2023-12-20T00:01:18;5.30;77.40
16032;DHT22;8120;48.308;8.914;2023-12-20T00:03:47;5.30;76.80
16032;DHT22;8120;48.308;8.914;2023-12-20T00:06:15;5.30;77.10
16032;DHT22;8120;48.308;8.914;2023-12-20T00:08:43;5.20;77.70
16032;DHT22;8120;48.308;8.914;2023-12-20T00:11:12;5.30;76.60
16032;DHT22;8120;48.308;8.914;2023-12-20T00:13:39;5.30;77.00
16032;DHT22;8120;48.308;8.914;2023-12-20T00:16:07;5.30;76.70
16032;DHT22;8120;48.308;8.914;2023-12-20T00:18:35;5.30;77.20
16032;DHT22;8120;48.308;8.914;2023-12-20T00:21:05;5.20;77.20
16032;DHT22;8120;48.308;8.914;2023-12-20T00:23:33;5.30;76.90
16032;DHT22;8120;48.308;8.914;2023-12-20T00:26:01;5.30;77.10
16032;DHT22;8120;48.308;8.914;2023-12-20T00:28:29;5.30;77.00
16032;DHT22;8120;48.308;8.914;2023-12-20T00:30:57;5.30;77.20
16032;DHT22;8120;48.308;8.914;2023-12-20T00:33:25;5.30;77.30
16032;DHT22;8120;48.308;8.914;2023-12-20T00:35:53;5.30;77.10
16032;DHT22;8120;48.308;8.914;2023-12-20T00:38:22;5.30;77.20
16032;DHT22;8120;48.308;8.914;2023-12-20T00:40:50;5.40;77.30
16032;DHT22;8120;48.308;8.914;2023-12-20T00:43:18;5.30;77.80
16032;DHT22;8120;48.308;8.914;2023-12-20T00:45:46;5.20;78.10
16032;DHT22;8120;48.308;8.914;2023-12-20T00:48:14;5.30;78.00
16032;DHT22;8120;48.308;8.914;2023-12-20T00:50:42;5.40;77.50
16032;DHT22;8120;48.308;8.914;2023-12-20T00:53:10;5.30;77.70
16032;DHT22;8120;48.308;8.914;2023-12-20T00:55:39;5.30;77.90
16032;DHT22;8120;48.308;8.914;2023-12-20T00:58:07;5.30;78.10
16032;DHT22;8120;48.308;8.914;2023-12-20T01:00:35;5.30;78.10
16032;DHT22;8120;48.308;8.914;2023-12-20T01:03:03;5.40;77.80
16032;DHT22;8120;48.308;8.914;2023-12-20T01:05:32;5.40;78.00
16032;DHT22;8120;48.308;8.914;2023-12-20T01:08:00;5.50;77.80
16032;DHT22;8120;48.308;8.914;2023-12-20T01:10:29;5.40;78.30
16032;DHT22;8120;48.308;8.914;2023-12-20T01:12:59;5.40;78.40
16032;DHT22;8120;48.308;8.914;2023-12-20T01:15:27;5.40;78.80
16032;DHT22;8120;48.308;8.914;2023-12-20T01:17:55;5.40;78.80
16032;DHT22;8120;48.308;8.914;2023-12-20T01:20:23;5.40;79.10
16032;DHT22;8120;48.308;8.914;2023-12-20T01:22:52;5.40;79.70
16032;DHT22;8120;48.308;8.914;2023-12-20T01:25:20;5.30;80.30
16032;DHT22;8120;48.308;8.914;2023-12-20T01:27:48;5.30;80.90
16032;DHT22;8120;48.308;8.914;2023-12-20T01:30:17;5.20;81.30
16032;DHT22;8120;48.308;8.914;2023-12-20T01:32:45;5.10;82.10
16032;DHT22;8120;48.308;8.914;2023-12-20T01:35:13;5.00;82.50
16032;DHT22;8120;48.308;8.914;2023-12-20T01:37:42;5.00;82.70
16032;DHT22;8120;48.308;8.914;2023-12-20T01:40:10;4.80;83.60
16032;DHT22;8120;48.308;8.914;2023-12-20T01:42:38;4.70;84.30
16032;DHT22;8120;48.308;8.914;2023-12-20T01:45:07;4.60;84.80
16032;DHT22;8120;48.308;8.914;2023-12-20T01:47:37;4.50;85.10
16032;DHT22;8120;48.308;8.914;2023-12-20T01:50:06;4.40;85.40
16032;DHT22;8120;48.308;8.914;2023-12-20T01:52:35;4.40;85.70
16032;DHT22;8120;48.308;8.914;2023-12-20T01:55:07;4.40;85.30
16032;DHT22;8120;48.308;8.914;2023-12-20T01:57:40;4.40;85.10
16032;DHT22;8120;48.308;8.914;2023-12-20T02:00:10;4.40;85.10
16032;DHT22;8120;48.308;8.914;2023-12-20T02:02:40;4.40;85.20
16032;DHT22;8120;48.308;8.914;2023-12-20T02:05:09;4.30;85.40
16032;DHT22;8120;48.308;8.914;2023-12-20T02:07:37;4.30;85.70
16032;DHT22;8120;48.308;8.914;2023-12-20T02:10:06;4.30;86.10
16032;DHT22;8120;48.308;8.914;2023-12-20T02:12:34;4.30;86.20
16032;DHT22;8120;48.308;8.914;2023-12-20T02:15:03;4.20;86.40
16032;DHT22;8120;48.308;8.914;2023-12-20T02:17:32;4.20;86.90
16032;DHT22;8120;48.308;8.914;2023-12-20T02:20:02;4.10;87.50
16032;DHT22;8120;48.308;8.914;2023-12-20T02:22:31;4.10;88.00
16032;DHT22;8120;48.308;8.914;2023-12-20T02:24:59;4.10;88.50
16032;DHT22;8120;48.308;8.914;2023-12-20T02:27:28;4.00;89.10
16032;DHT22;8120;48.308;8.914;2023-12-20T02:29:57;4.00;89.80
16032;DHT22;8120;48.308;8.914;2023-12-20T02:32:25;4.00;90.50
16032;DHT22;8120;48.308;8.914;2023-12-20T02:34:55;4.00;90.80
16032;DHT22;8120;48.308;8.914;2023-12-20T02:37:24;4.10;91.20
16032;DHT22;8120;48.308;8.914;2023-12-20T02:39:53;4.00;91.80
16032;DHT22;8120;48.308;8.914;2023-12-20T02:42:21;4.00;92.30
16032;DHT22;8120;48.308;8.914;2023-12-20T02:44:49;4.10;92.20
16032;DHT22;8120;48.308;8.914;2023-12-20T02:47:16;4.10;92.40
16032;DHT22;8120;48.308;8.914;2023-12-20T02:49:44;4.10;92.40
16032;DHT22;8120;48.308;8.914;2023-12-20T02:52:12;4.10;92.70
16032;DHT22;8120;48.308;8.914;2023-12-20T02:54:40;4.10;92.60
16032;DHT22;8120;48.308;8.914;2023-12-20T02:57:10;4.10;92.60
16032;DHT22;8120;48.308;8.914;2023-12-20T02:59:38;4.20;92.80
16032;DHT22;8120;48.308;8.914;2023-12-20T03:02:06;4.10;92.80
16032;DHT22;8120;48.308;8.914;2023-12-20T03:04:34;4.10;92.90
16032;DHT22;8120;48.308;8.914;2023-12-20T03:07:02;4.20;92.50
16032;DHT22;8120;48.308;8.914;2023-12-20T03:09:30;4.20;91.60
16032;DHT22;8120;48.308;8.914;2023-12-20T03:12:20;4.20;91.70
16032;DHT22;8120;48.308;8.914;2023-12-20T03:14:48;4.20;92.20
16032;DHT22;8120;48.308;8.914;2023-12-20T03:17:16;4.20;92.40
16032;DHT22;8120;48.308;8.914;2023-12-20T03:19:44;4.20;92.20
16032;DHT22;8120;48.308;8.914;2023-12-20T03:22:12;4.20;92.00
16032;DHT22;8120;48.308;8.914;2023-12-20T03:24:40;4.20;92.20
16032;DHT22;8120;48.308;8.914;2023-12-20T03:27:08;4.20;92.40
16032;DHT22;8120;48.308;8.914;2023-12-20T03:29:37;4.20;92.00
16032;DHT22;8120;48.308;8.914;2023-12-20T03:32:05;4.20;92.10
16032;DHT22;8120;48.308;8.914;2023-12-20T03:34:35;4.20;91.90
16032;DHT22;8120;48.308;8.914;2023-12-20T03:37:03;4.20;92.00
16032;DHT22;8120;48.308;8.914;2023-12-20T03:39:31;4.10;92.20
16032;DHT22;8120;48.308;8.914;2023-12-20T03:41:59;4.10;92.10
16032;DHT22;8120;48.308;8.914;2023-12-20T03:44:27;4.10;92.10
16032;DHT22;8120;48.308;8.914;2023-12-20T03:46:56;4.00;92.00
16032;DHT22;8120;48.308;8.914;2023-12-20T03:49:24;4.10;91.90
16032;DHT22;8120;48.308;8.914;2023-12-20T03:51:52;4.00;92.10
16032;DHT22;8120;48.308;8.914;2023-12-20T03:54:20;4.00;92.20
16032;DHT22;8120;48.308;8.914;2023-12-20T03:56:48;4.00;92.00
16032;DHT22;8120;48.308;8.914;2023-12-20T03:59:17;3.90;92.00
16032;DHT22;8120;48.308;8.914;2023-12-20T04:01:45;3.90;91.40
16032;DHT22;8120;48.308;8.914;2023-12-20T04:04:15;3.90;91.20
16032;DHT22;8120;48.308;8.914;2023-12-20T04:06:43;3.90;91.40
16032;DHT22;8120;48.308;8.914;2023-12-20T04:09:11;3.80;91.90
16032;DHT22;8120;48.308;8.914;2023-12-20T04:11:39;3.80;92.50
16032;DHT22;8120;48.308;8.914;2023-12-20T04:14:07;3.70;92.80
16032;DHT22;8120;48.308;8.914;2023-12-20T04:16:35;3.70;93.00
16032;DHT22;8120;48.308;8.914;2023-12-20T04:19:03;3.70;92.50
16032;DHT22;8120;48.308;8.914;2023-12-20T04:21:32;3.70;92.30
16032;DHT22;8120;48.308;8.914;2023-12-20T04:24:00;3.60;92.20
16032;DHT22;8120;48.308;8.914;2023-12-20T04:26:28;3.60;92.20
16032;DHT22;8120;48.308;8.914;2023-12-20T04:28:57;3.60;92.60
16032;DHT22;8120;48.308;8.914;2023-12-20T04:31:24;3.60;92.50
16032;DHT22;8120;48.308;8.914;2023-12-20T04:33:52;3.60;92.30
16032;DHT22;8120;48.308;8.914;2023-12-20T04:36:20;3.60;92.30
16032;DHT22;8120;48.308;8.914;2023-12-20T04:38:50;3.50;92.70
16032;DHT22;8120;48.308;8.914;2023-12-20T04:41:17;3.50;93.00
16032;DHT22;8120;48.308;8.914;2023-12-20T04:43:45;3.60;92.90
16032;DHT22;8120;48.308;8.914;2023-12-20T04:46:13;3.60;93.10
16032;DHT22;8120;48.308;8.914;2023-12-20T04:48:41;3.50;93.30
16032;DHT22;8120;48.308;8.914;2023-12-20T04:51:09;3.50;93.10
16032;DHT22;8120;48.308;8.914;2023-12-20T04:53:37;3.50;93.70
16032;DHT22;8120;48.308;8.914;2023-12-20T04:56:06;3.40;93.80
16032;DHT22;8120;48.308;8.914;2023-12-20T04:58:34;3.50;93.70
16032;DHT22;8120;48.308;8.914;2023-12-20T05:01:03;3.50;93.50
16032;DHT22;8120;48.308;8.914;2023-12-20T05:03:31;3.50;93.30
16032;DHT22;8120;48.308;8.914;2023-12-20T05:05:59;3.50;93.10
16032;DHT22;8120;48.308;8.914;2023-12-20T05:08:27;3.50;93.10
16032;DHT22;8120;48.308;8.914;2023-12-20T05:10:55;3.50;93.10
16032;DHT22;8120;48.308;8.914;2023-12-20T05:13:24;3.50;93.10
16032;DHT22;8120;48.308;8.914;2023-12-20T05:16:07;3.50;93.30
16032;DHT22;8120;48.308;8.914;2023-12-20T05:18:36;3.50;93.20
16032;DHT22;8120;48.308;8.914;2023-12-20T05:21:04;3.50;93.10
16032;DHT22;8120;48.308;8.914;2023-12-20T05:23:32;3.50;92.90
16032;DHT22;8120;48.308;8.914;2023-12-20T05:26:00;3.50;93.00
16032;DHT22;8120;48.308;8.914;2023-12-20T05:28:29;3.50;92.80
16032;DHT22;8120;48.308;8.914;2023-12-20T05:30:57;3.50;92.30
16032;DHT22;8120;48.308;8.914;2023-12-20T05:33:25;3.50;92.00
16032;DHT22;8120;48.308;8.914;2023-12-20T05:35:54;3.50;91.90
16032;DHT22;8120;48.308;8.914;2023-12-20T05:38:21;3.50;92.30
16032;DHT22;8120;48.308;8.914;2023-12-20T05:40:50;3.50;92.60
16032;DHT22;8120;48.308;8.914;2023-12-20T05:43:17;3.50;92.10
16032;DHT22;8120;48.308;8.914;2023-12-20T05:45:48;3.50;91.90
16032;DHT22;8120;48.308;8.914;2023-12-20T05:50:43;3.60;91.40
16032;DHT22;8120;48.308;8.914;2023-12-20T05:53:11;3.50;91.90
16032;DHT22;8120;48.308;8.914;2023-12-20T05:55:39;3.50;92.40
16032;DHT22;8120;48.308;8.914;2023-12-20T05:58:07;3.50;92.20
16032;DHT22;8120;48.308;8.914;2023-12-20T06:00:35;3.50;92.20
16032;DHT22;8120;48.308;8.914;2023-12-20T06:03:05;3.50;92.30
16032;DHT22;8120;48.308;8.914;2023-12-20T06:05:33;3.50;92.50
16032;DHT22;8120;48.308;8.914;2023-12-20T06:08:01;3.50;92.60
16032;DHT22;8120;48.308;8.914;2023-12-20T06:10:30;3.50;92.50
16032;DHT22;8120;48.308;8.914;2023-12-20T06:12:57;3.50;92.50
16032;DHT22;8120;48.308;8.914;2023-12-20T06:15:27;3.50;92.50
16032;DHT22;8120;48.308;8.914;2023-12-20T06:17:55;3.50;92.60
16032;DHT22;8120;48.308;8.914;2023-12-20T06:20:26;3.60;92.40
16032;DHT22;8120;48.308;8.914;2023-12-20T06:22:54;3.60;92.30
16032;DHT22;8120;48.308;8.914;2023-12-20T06:25:22;3.50;92.60
16032;DHT22;8120;48.308;8.914;2023-12-20T06:27:50;3.50;92.90
16032;DHT22;8120;48.308;8.914;2023-12-20T06:30:18;3.50;92.70
16032;DHT22;8120;48.308;8.914;2023-12-20T06:32:46;3.60;92.30
16032;DHT22;8120;48.308;8.914;2023-12-20T06:35:14;3.60;92.30
16032;DHT22;8120;48.308;8.914;2023-12-20T06:37:44;3.50;92.50
16032;DHT22;8120;48.308;8.914;2023-12-20T06:40:12;3.50;92.50
16032;DHT22;8120;48.308;8.914;2023-12-20T06:42:44;3.50;92.80
16032;DHT22;8120;48.308;8.914;2023-12-20T06:45:27;3.50;92.90
16032;DHT22;8120;48.308;8.914;2023-12-20T06:47:55;3.50;92.70
16032;DHT22;8120;48.308;8.914;2023-12-20T06:50:23;3.60;92.60
16032;DHT22;8120;48.308;8.914;2023-12-20T06:52:52;3.60;92.50
16032;DHT22;8120;48.308;8.914;2023-12-20T06:55:20;3.60;92.30
16032;DHT22;8120;48.308;8.914;2023-12-20T06:57:48;3.60;92.20
16032;DHT22;8120;48.308;8.914;2023-12-20T07:00:17;3.60;92.50
16032;DHT22;8120;48.308;8.914;2023-12-20T07:02:46;3.60;92.50
16032;DHT22;8120;48.308;8.914;2023-12-20T07:05:16;3.60;92.60
16032;DHT22;8120;48.308;8.914;2023-12-20T07:07:46;3.60;92.60
16032;DHT22;8120;48.308;8.914;2023-12-20T07:10:16;3.50;92.70
16032;DHT22;8120;48.308;8.914;2023-12-20T07:12:44;3.60;92.60
16032;DHT22;8120;48.308;8.914;2023-12-20T07:15:12;3.60;92.90
16032;DHT22;8120;48.308;8.914;2023-12-20T07:17:40;3.60;92.90
16032;DHT22;8120;48.308;8.914;2023-12-20T07:20:10;3.60;93.00
16032;DHT22;8120;48.308;8.914;2023-12-20T07:22:39;3.60;92.80
16032;DHT22;8120;48.308;8.914;2023-12-20T07:25:07;3.60;92.70
16032;DHT22;8120;48.308;8.914;2023-12-20T07:27:37;3.70;92.20
16032;DHT22;8120;48.308;8.914;2023-12-20T07:30:09;3.70;92.20
16032;DHT22;8120;48.308;8.914;2023-12-20T07:32:37;3.70;92.20
16032;DHT22;8120;48.308;8.914;2023-12-20T07:35:06;3.70;91.80
16032;DHT22;8120;48.308;8.914;2023-12-20T07:37:34;3.70;92.00
16032;DHT22;8120;48.308;8.914;2023-12-20T07:40:02;3.70;92.10
16032;DHT22;8120;48.308;8.914;2023-12-20T07:42:30;3.70;92.20
16032;DHT22;8120;48.308;8.914;2023-12-20T07:45:00;3.70;92.10
16032;DHT22;8120;48.308;8.914;2023-12-20T07:47:28;3.80;91.70
16032;DHT22;8120;48.308;8.914;2023-12-20T07:49:56;3.80;91.70
16032;DHT22;8120;48.308;8.914;2023-12-20T07:52:24;3.80;91.50
16032;DHT22;8120;48.308;8.914;2023-12-20T07:54:52;3.80;91.90
16032;DHT22;8120;48.308;8.914;2023-12-20T07:57:20;3.80;92.00
16032;DHT22;8120;48.308;8.914;2023-12-20T07:59:48;3.80;91.70
16032;DHT22;8120;48.308;8.914;2023-12-20T08:02:18;3.80;91.60
16032;DHT22;8120;48.308;8.914;2023-12-20T08:04:46;3.80;91.80
16032;DHT22;8120;48.308;8.914;2023-12-20T08:07:14;3.80;91.90
16032;DHT22;8120;48.308;8.914;2023-12-20T08:09:42;3.80;92.20
16032;DHT22;8120;48.308;8.914;2023-12-20T08:12:10;3.80;92.20
16032;DHT22;8120;48.308;8.914;2023-12-20T08:14:39;3.80;92.30
16032;DHT22;8120;48.308;8.914;2023-12-20T08:17:06;3.90;92.30
16032;DHT22;8120;48.308;8.914;2023-12-20T08:19:36;3.90;92.30
16032;DHT22;8120;48.308;8.914;2023-12-20T08:22:04;3.90;92.40
16032;DHT22;8120;48.308;8.914;2023-12-20T08:24:32;3.90;92.60
16032;DHT22;8120;48.308;8.914;2023-12-20T08:26:59;3.90;92.60
16032;DHT22;8120;48.308;8.914;2023-12-20T08:29:27;3.90;92.40
16032;DHT22;8120;48.308;8.914;2023-12-20T08:31:55;3.90;92.70
16032;DHT22;8120;48.308;8.914;2023-12-20T08:34:24;3.90;92.70
16032;DHT22;8120;48.308;8.914;2023-12-20T08:36:53;4.00;92.80
16032;DHT22;8120;48.308;8.914;2023-12-20T08:39:21;3.90;92.90
16032;DHT22;8120;48.308;8.914;2023-12-20T08:41:49;3.90;93.20
16032;DHT22;8120;48.308;8.914;2023-12-20T08:44:17;3.90;93.30
16032;DHT22;8120;48.308;8.914;2023-12-20T08:46:45;3.90;93.50
16032;DHT22;8120;48.308;8.914;2023-12-20T08:49:13;3.90;94.00
16032;DHT22;8120;48.308;8.914;2023-12-20T08:51:42;3.90;94.10
16032;DHT22;8120;48.308;8.914;2023-12-20T08:54:11;3.90;94.30
16032;DHT22;8120;48.308;8.914;2023-12-20T08:56:40;3.90;94.50
16032;DHT22;8120;48.308;8.914;2023-12-20T08:59:07;4.00;94.40
16032;DHT22;8120;48.308;8.914;2023-12-20T09:01:36;4.00;94.40
16032;DHT22;8120;48.308;8.914;2023-12-20T09:04:04;4.00;94.20
16032;DHT22;8120;48.308;8.914;2023-12-20T09:06:33;4.10;94.30
16032;DHT22;8120;48.308;8.914;2023-12-20T09:09:01;4.10;93.70
16032;DHT22;8120;48.308;8.914;2023-12-20T09:11:30;4.20;93.00
16032;DHT22;8120;48.308;8.914;2023-12-20T09:13:59;4.20;92.70
16032;DHT22;8120;48.308;8.914;2023-12-20T09:16:27;4.20;92.90
16032;DHT22;8120;48.308;8.914;2023-12-20T09:18:55;4.10;93.20
16032;DHT22;8120;48.308;8.914;2023-12-20T09:21:23;4.00;94.30
16032;DHT22;8120;48.308;8.914;2023-12-20T09:23:51;4.00;95.40
16032;DHT22;8120;48.308;8.914;2023-12-20T09:26:20;4.00;95.80
16032;DHT22;8120;48.308;8.914;2023-12-20T09:28:49;4.10;96.20
16032;DHT22;8120;48.308;8.914;2023-12-20T09:31:17;4.30;95.60
16032;DHT22;8120;48.308;8.914;2023-12-20T09:33:45;4.10;95.00
16032;DHT22;8120;48.308;8.914;2023-12-20T09:36:13;4.20;95.20
16032;DHT22;8120;48.308;8.914;2023-12-20T09:38:41;4.20;94.80
16032;DHT22;8120;48.308;8.914;2023-12-20T09:41:12;4.20;93.20
16032;DHT22;8120;48.308;8.914;2023-12-20T09:43:41;4.20;92.90
16032;DHT22;8120;48.308;8.914;2023-12-20T09:46:12;4.10;92.70
16032;DHT22;8120;48.308;8.914;2023-12-20T09:48:41;4.10;92.80
16032;DHT22;8120;48.308;8.914;2023-12-20T09:51:10;3.90;87.20
16032;DHT22;8120;48.308;8.914;2023-12-20T09:53:40;3.50;86.30
16032;DHT22;8120;48.308;8.914;2023-12-20T09:56:08;3.30;87.60
16032;DHT22;8120;48.308;8.914;2023-12-20T09:58:37;3.40;87.80
16032;DHT22;8120;48.308;8.914;2023-12-20T10:01:07;3.40;87.50
16032;DHT22;8120;48.308;8.914;2023-12-20T10:03:37;3.40;87.00
16032;DHT22;8120;48.308;8.914;2023-12-20T10:06:07;3.50;87.50
16032;DHT22;8120;48.308;8.914;2023-12-20T10:08:35;3.60;86.40
16032;DHT22;8120;48.308;8.914;2023-12-20T10:11:03;3.70;87.00
16032;DHT22;8120;48.308;8.914;2023-12-20T10:13:32;3.60;87.20
16032;DHT22;8120;48.308;8.914;2023-12-20T10:16:00;3.70;87.70
16032;DHT22;8120;48.308;8.914;2023-12-20T10:18:29;3.80;86.80
16032;DHT22;8120;48.308;8.914;2023-12-20T10:21:06;3.70;86.60
16032;DHT22;8120;48.308;8.914;2023-12-20T10:23:37;3.80;87.10
16032;DHT22;8120;48.308;8.914;2023-12-20T10:26:06;3.80;85.60
16032;DHT22;8120;48.308;8.914;2023-12-20T10:28:34;3.70;86.00
16032;DHT22;8120;48.308;8.914;2023-12-20T10:31:03;3.50;86.80
16032;DHT22;8120;48.308;8.914;2023-12-20T10:33:31;3.60;86.30
16032;DHT22;8120;48.308;8.914;2023-12-20T10:36:00;3.60;86.60
16032;DHT22;8120;48.308;8.914;2023-12-20T10:38:29;3.60;87.10
16032;DHT22;8120;48.308;8.914;2023-12-20T10:40:58;3.60;87.30
16032;DHT22;8120;48.308;8.914;2023-12-20T10:43:28;3.60;87.90
16032;DHT22;8120;48.308;8.914;2023-12-20T10:45:57;3.70;87.50
16032;DHT22;8120;48.308;8.914;2023-12-20T10:48:26;3.80;87.50
16032;DHT22;8120;48.308;8.914;2023-12-20T10:50:57;3.80;86.90
16032;DHT22;8120;48.308;8.914;2023-12-20T10:53:26;3.70;87.50
16032;DHT22;8120;48.308;8.914;2023-12-20T10:55:55;3.60;87.30
16032;DHT22;8120;48.308;8.914;2023-12-20T10:58:24;3.60;88.80
16032;DHT22;8120;48.308;8.914;2023-12-20T11:01:00;3.70;87.80
16032;DHT22;8120;48.308;8.914;2023-12-20T11:03:34;3.60;88.70
16032;DHT22;8120;48.308;8.914;2023-12-20T11:06:07;3.50;88.50
16032;DHT22;8120;48.308;8.914;2023-12-20T11:08:47;3.50;88.50
16032;DHT22;8120;48.308;8.914;2023-12-20T11:11:25;3.40;88.80
16032;DHT22;8120;48.308;8.914;2023-12-20T11:13:57;3.50;89.90
16032;DHT22;8120;48.308;8.914;2023-12-20T11:16:27;3.40;89.90
16032;DHT22;8120;48.308;8.914;2023-12-20T11:19:11;3.40;90.40
16032;DHT22;8120;48.308;8.914;2023-12-20T11:21:40;3.40;90.60
16032;DHT22;8120;48.308;8.914;2023-12-20T11:24:09;3.40;91.20
16032;DHT22;8120;48.308;8.914;2023-12-20T11:26:46;3.40;89.90
16032;DHT22;8120;48.308;8.914;2023-12-20T11:29:31;3.30;89.50
16032;DHT22;8120;48.308;8.914;2023-12-20T11:32:00;3.30;90.20
16032;DHT22;8120;48.308;8.914;2023-12-20T11:34:31;3.20;91.20
16032;DHT22;8120;48.308;8.914;2023-12-20T11:37:00;3.10;91.00
16032;DHT22;8120;48.308;8.914;2023-12-20T11:39:31;3.10;90.40
16032;DHT22;8120;48.308;8.914;2023-12-20T11:42:05;3.30;90.40
16032;DHT22;8120;48.308;8.914;2023-12-20T11:44:34;3.40;90.10
16032;DHT22;8120;48.308;8.914;2023-12-20T11:47:07;3.40;90.10
16032;DHT22;8120;48.308;8.914;2023-12-20T11:49:35;3.50;89.90
16032;DHT22;8120;48.308;8.914;2023-12-20T11:52:04;3.60;88.90
16032;DHT22;8120;48.308;8.914;2023-12-20T11:54:32;3.50;88.00
16032;DHT22;8120;48.308;8.914;2023-12-20T11:57:00;3.40;88.00
16032;DHT22;8120;48.308;8.914;2023-12-20T11:59:30;3.30;87.80
16032;DHT22;8120;48.308;8.914;2023-12-20T12:01:59;3.40;88.00
16032;DHT22;8120;48.308;8.914;2023-12-20T12:04:28;3.30;86.50
16032;DHT22;8120;48.308;8.914;2023-12-20T12:06:56;3.30;87.00
16032;DHT22;8120;48.308;8.914;2023-12-20T12:09:24;3.40;87.00
16032;DHT22;8120;48.308;8.914;2023-12-20T12:11:52;3.40;87.20
16032;DHT22;8120;48.308;8.914;2023-12-20T12:14:20;3.40;86.70
16032;DHT22;8120;48.308;8.914;2023-12-20T12:16:49;3.30;85.90
16032;DHT22;8120;48.308;8.914;2023-12-20T12:19:20;3.30;86.80
16032;DHT22;8120;48.308;8.914;2023-12-20T12:21:49;3.20;85.40
16032;DHT22;8120;48.308;8.914;2023-12-20T12:24:20;3.20;85.70
16032;DHT22;8120;48.308;8.914;2023-12-20T12:26:50;3.10;86.10
16032;DHT22;8120;48.308;8.914;2023-12-20T12:29:18;3.10;86.20
16032;DHT22;8120;48.308;8.914;2023-12-20T12:31:46;3.10;86.60
16032;DHT22;8120;48.308;8.914;2023-12-20T12:34:16;3.10;86.00
16032;DHT22;8120;48.308;8.914;2023-12-20T12:36:45;3.10;85.00
16032;DHT22;8120;48.308;8.914;2023-12-20T12:39:15;3.00;86.10
16032;DHT22;8120;48.308;8.914;2023-12-20T12:41:43;3.10;86.50
16032;DHT22;8120;48.308;8.914;2023-12-20T12:44:11;3.10;85.70
16032;DHT22;8120;48.308;8.914;2023-12-20T12:46:44;3.10;85.90
16032;DHT22;8120;48.308;8.914;2023-12-20T12:49:12;3.00;85.30
16032;DHT22;8120;48.308;8.914;2023-12-20T12:51:41;3.00;85.40
16032;DHT22;8120;48.308;8.914;2023-12-20T12:54:09;3.00;85.20
16032;DHT22;8120;48.308;8.914;2023-12-20T12:56:37;3.00;84.80
16032;DHT22;8120;48.308;8.914;2023-12-20T12:59:05;3.00;85.30
16032;DHT22;8120;48.308;8.914;2023-12-20T13:01:33;3.00;85.10
16032;DHT22;8120;48.308;8.914;2023-12-20T13:04:01;2.90;85.60
16032;DHT22;8120;48.308;8.914;2023-12-20T13:06:33;2.90;85.50
16032;DHT22;8120;48.308;8.914;2023-12-20T13:09:02;2.90;85.90
16032;DHT22;8120;48.308;8.914;2023-12-20T13:11:31;2.90;86.30
16032;DHT22;8120;48.308;8.914;2023-12-20T13:13:59;2.80;86.50
16032;DHT22;8120;48.308;8.914;2023-12-20T13:16:27;2.90;86.90
16032;DHT22;8120;48.308;8.914;2023-12-20T13:18:55;2.80;87.40
16032;DHT22;8120;48.308;8.914;2023-12-20T13:21:23;2.80;86.80
16032;DHT22;8120;48.308;8.914;2023-12-20T13:23:51;2.80;87.20
16032;DHT22;8120;48.308;8.914;2023-12-20T13:26:21;2.80;87.20
16032;DHT22;8120;48.308;8.914;2023-12-20T13:28:49;2.90;87.20
16032;DHT22;8120;48.308;8.914;2023-12-20T13:31:17;2.90;85.90
16032;DHT22;8120;48.308;8.914;2023-12-20T13:33:45;2.90;85.50
16032;DHT22;8120;48.308;8.914;2023-12-20T13:36:13;2.90;86.00
16032;DHT22;8120;48.308;8.914;2023-12-20T13:38:43;2.80;85.70
16032;DHT22;8120;48.308;8.914;2023-12-20T13:41:11;2.80;85.10
16032;DHT22;8120;48.308;8.914;2023-12-20T13:43:40;2.80;85.30
16032;DHT22;8120;48.308;8.914;2023-12-20T13:46:09;2.80;85.20
16032;DHT22;8120;48.308;8.914;2023-12-20T13:48:37;2.80;85.30
16032;DHT22;8120;48.308;8.914;2023-12-20T13:51:05;2.70;85.00
16032;DHT22;8120;48.308;8.914;2023-12-20T13:53:34;2.60;84.80
16032;DHT22;8120;48.308;8.914;2023-12-20T13:56:02;2.60;84.20
16032;DHT22;8120;48.308;8.914;2023-12-20T13:58:30;2.50;83.70
16032;DHT22;8120;48.308;8.914;2023-12-20T14:01:02;2.50;82.40
16032;DHT22;8120;48.308;8.914;2023-12-20T14:03:30;2.50;81.80
16032;DHT22;8120;48.308;8.914;2023-12-20T14:05:58;2.50;80.50
16032;DHT22;8120;48.308;8.914;2023-12-20T14:08:26;2.60;80.50
16032;DHT22;8120;48.308;8.914;2023-12-20T14:10:54;2.60;81.20
16032;DHT22;8120;48.308;8.914;2023-12-20T14:13:22;2.60;80.40
16032;DHT22;8120;48.308;8.914;2023-12-20T14:15:50;2.60;80.90
16032;DHT22;8120;48.308;8.914;2023-12-20T14:18:20;2.60;81.40
16032;DHT22;8120;48.308;8.914;2023-12-20T14:20:48;2.60;81.10
16032;DHT22;8120;48.308;8.914;2023-12-20T14:23:17;2.70;80.40
16032;DHT22;8120;48.308;8.914;2023-12-20T14:25:45;2.70;80.70
16032;DHT22;8120;48.308;8.914;2023-12-20T14:28:19;2.60;80.70
16032;DHT22;8120;48.308;8.914;2023-12-20T14:30:47;2.70;80.70
16032;DHT22;8120;48.308;8.914;2023-12-20T14:33:16;2.60;79.80
16032;DHT22;8120;48.308;8.914;2023-12-20T14:35:47;2.70;80.10
16032;DHT22;8120;48.308;8.914;2023-12-20T14:38:15;2.70;80.00
16032;DHT22;8120;48.308;8.914;2023-12-20T14:40:43;2.70;79.70
16032;DHT22;8120;48.308;8.914;2023-12-20T14:43:11;2.70;80.40
16032;DHT22;8120;48.308;8.914;2023-12-20T14:45:39;2.80;80.30
16032;DHT22;8120;48.308;8.914;2023-12-20T14:48:07;2.80;80.50
16032;DHT22;8120;48.308;8.914;2023-12-20T14:50:35;2.80;79.80
16032;DHT22;8120;48.308;8.914;2023-12-20T14:53:05;2.70;79.60
16032;DHT22;8120;48.308;8.914;2023-12-20T14:55:33;2.70;79.80
16032;DHT22;8120;48.308;8.914;2023-12-20T14:58:01;2.70;80.20
16032;DHT22;8120;48.308;8.914;2023-12-20T15:00:29;2.70;81.00
16032;DHT22;8120;48.308;8.914;2023-12-20T15:02:57;2.70;81.00
16032;DHT22;8120;48.308;8.914;2023-12-20T15:05:25;2.60;81.90
16032;DHT22;8120;48.308;8.914;2023-12-20T15:07:54;2.60;82.10
16032;DHT22;8120;48.308;8.914;2023-12-20T15:10:23;2.50;82.20
16032;DHT22;8120;48.308;8.914;2023-12-20T15:12:51;2.50;82.60
16032;DHT22;8120;48.308;8.914;2023-12-20T15:15:19;2.50;82.90
16032;DHT22;8120;48.308;8.914;2023-12-20T15:17:48;2.50;83.00
16032;DHT22;8120;48.308;8.914;2023-12-20T15:20:17;2.40;82.50
16032;DHT22;8120;48.308;8.914;2023-12-20T15:22:45;2.50;82.40
16032;DHT22;8120;48.308;8.914;2023-12-20T15:25:13;2.40;82.60
16032;DHT22;8120;48.308;8.914;2023-12-20T15:27:48;2.40;81.90
16032;DHT22;8120;48.308;8.914;2023-12-20T15:30:20;2.50;81.90
16032;DHT22;8120;48.308;8.914;2023-12-20T15:32:48;2.50;82.10
16032;DHT22;8120;48.308;8.914;2023-12-20T15:35:15;2.50;81.80
16032;DHT22;8120;48.308;8.914;2023-12-20T15:37:44;2.50;81.60
16032;DHT22;8120;48.308;8.914;2023-12-20T15:40:12;2.50;81.80
16032;DHT22;8120;48.308;8.914;2023-12-20T15:42:40;2.50;81.60
16032;DHT22;8120;48.308;8.914;2023-12-20T15:45:10;2.50;81.60
16032;DHT22;8120;48.308;8.914;2023-12-20T15:47:39;2.50;81.70
16032;DHT22;8120;48.308;8.914;2023-12-20T15:50:07;2.50;81.50
16032;DHT22;8120;48.308;8.914;2023-12-20T15:52:35;2.50;81.90
16032;DHT22;8120;48.308;8.914;2023-12-20T15:55:05;2.50;81.70
16032;DHT22;8120;48.308;8.914;2023-12-20T15:57:34;2.40;81.90
16032;DHT22;8120;48.308;8.914;2023-12-20T16:00:19;2.40;82.10
16032;DHT22;8120;48.308;8.914;2023-12-20T16:02:47;2.40;81.80
16032;DHT22;8120;48.308;8.914;2023-12-20T16:05:16;2.40;81.70
16032;DHT22;8120;48.308;8.914;2023-12-20T16:07:45;2.30;81.90
16032;DHT22;8120;48.308;8.914;2023-12-20T16:10:13;2.40;82.00
16032;DHT22;8120;48.308;8.914;2023-12-20T16:12:41;2.30;82.70
16032;DHT22;8120;48.308;8.914;2023-12-20T16:15:09;2.20;82.90